sensor_id;sensor_type;location;lat;lon;timestamp;P1;durP1;ratioP1;P2;durP2;ratioP2
51228;SDS011;37304;52.216;6.874;2022-09-27T00:07:18;3.80;;;1.23;;
51228;SDS011;37304;52.216;6.874;2022-09-27T00:12:18;3.53;;;0.60;;
51228;SDS011;37304;52.216;6.874;2022-09-27T00:22:19;5.60;;;0.90;;
51228;SDS011;37304;52.216;6.874;2022-09-27T00:32:19;3.37;;;0.53;;
51228;SDS011;37304;52.216;6.874;2022-09-27T00:37:22;4.03;;;0.65;;
51228;SDS011;37304;52.216;6.874;2022-09-27T00:47:30;3.47;;;0.47;;
51228;SDS011;37304;52.216;6.874;2022-09-27T00:52:54;2.60;;;0.43;;
51228;SDS011;37304;52.216;6.874;2022-09-27T00:58:02;5.03;;;0.65;;
51228;SDS011;37304;52.216;6.874;2022-09-27T01:03:03;2.90;;;0.60;;
51228;SDS011;37304;52.216;6.874;2022-09-27T01:08:06;3.53;;;1.20;;
51228;SDS011;37304;52.216;6.874;2022-09-27T01:18:33;2.42;;;0.40;;
51228;SDS011;37304;52.216;6.874;2022-09-27T01:24:02;2.17;;;0.75;;
51228;SDS011;37304;52.216;6.874;2022-09-27T01:34:51;1.00;;;0.30;;
51228;SDS011;37304;52.216;6.874;2022-09-27T01:45:36;0.17;;;0.10;;
51228;SDS011;37304;52.216;6.874;2022-09-27T01:50:50;1.30;;;0.30;;
51228;SDS011;37304;52.216;6.874;2022-09-27T01:55:56;0.55;;;0.30;;
51228;SDS011;37304;52.216;6.874;2022-09-27T02:06:00;4.80;;;0.80;;
51228;SDS011;37304;52.216;6.874;2022-09-27T02:11:11;4.30;;;0.70;;
51228;SDS011;37304;52.216;6.874;2022-09-27T02:21:30;2.58;;;0.45;;
51228;SDS011;37304;52.216;6.874;2022-09-27T02:26:39;2.30;;;0.82;;
51228;SDS011;37304;52.216;6.874;2022-09-27T02:31:42;1.75;;;0.70;;
51228;SDS011;37304;52.216;6.874;2022-09-27T02:41:43;2.83;;;0.60;;
51228;SDS011;37304;52.216;6.874;2022-09-27T02:57:31;0.82;;;0.40;;
51228;SDS011;37304;52.216;6.874;2022-09-27T03:07:47;4.30;;;0.68;;
51228;SDS011;37304;52.216;6.874;2022-09-27T03:12:48;5.35;;;0.70;;
51228;SDS011;37304;52.216;6.874;2022-09-27T03:22:49;2.70;;;0.30;;
51228;SDS011;37304;52.216;6.874;2022-09-27T03:32:50;1.15;;;0.40;;
51228;SDS011;37304;52.216;6.874;2022-09-27T03:42:51;1.52;;;0.60;;
51228;SDS011;37304;52.216;6.874;2022-09-27T03:57:53;1.25;;;0.47;;
51228;SDS011;37304;52.216;6.874;2022-09-27T04:02:53;3.67;;;0.40;;
51228;SDS011;37304;52.216;6.874;2022-09-27T04:12:55;0.30;;;0.30;;
51228;SDS011;37304;52.216;6.874;2022-09-27T04:17:55;0.87;;;0.30;;
51228;SDS011;37304;52.216;6.874;2022-09-27T04:22:55;1.27;;;0.32;;
51228;SDS011;37304;52.216;6.874;2022-09-27T04:27:56;3.78;;;0.60;;
51228;SDS011;37304;52.216;6.874;2022-09-27T04:32:56;0.70;;;0.50;;
51228;SDS011;37304;52.216;6.874;2022-09-27T04:37:56;2.70;;;0.50;;
51228;SDS011;37304;52.216;6.874;2022-09-27T04:47:58;1.67;;;0.80;;
51228;SDS011;37304;52.216;6.874;2022-09-27T04:52:59;7.13;;;0.73;;
51228;SDS011;37304;52.216;6.874;2022-09-27T04:58:00;3.80;;;0.47;;
51228;SDS011;37304;52.216;6.874;2022-09-27T05:03:00;0.97;;;0.50;;
51228;SDS011;37304;52.216;6.874;2022-09-27T05:08:00;2.17;;;0.80;;
51228;SDS011;37304;52.216;6.874;2022-09-27T05:13:01;1.00;;;0.60;;
51228;SDS011;37304;52.216;6.874;2022-09-27T05:18:01;2.90;;;1.00;;
51228;SDS011;37304;52.216;6.874;2022-09-27T05:23:02;5.50;;;0.80;;
51228;SDS011;37304;52.216;6.874;2022-09-27T05:28:03;5.68;;;1.15;;
51228;SDS011;37304;52.216;6.874;2022-09-27T05:33:05;7.25;;;1.27;;
51228;SDS011;37304;52.216;6.874;2022-09-27T05:38:05;2.70;;;0.60;;
51228;SDS011;37304;52.216;6.874;2022-09-27T05:43:05;1.33;;;0.70;;
51228;SDS011;37304;52.216;6.874;2022-09-27T05:48:06;5.87;;;1.27;;
51228;SDS011;37304;52.216;6.874;2022-09-27T05:53:08;5.57;;;0.75;;
51228;SDS011;37304;52.216;6.874;2022-09-27T05:58:09;2.90;;;1.20;;
51228;SDS011;37304;52.216;6.874;2022-09-27T06:03:10;3.63;;;1.00;;
51228;SDS011;37304;52.216;6.874;2022-09-27T06:08:12;5.60;;;1.10;;
51228;SDS011;37304;52.216;6.874;2022-09-27T06:13:14;4.93;;;0.90;;
51228;SDS011;37304;52.216;6.874;2022-09-27T06:18:15;5.07;;;0.98;;
51228;SDS011;37304;52.216;6.874;2022-09-27T06:23:18;3.20;;;0.70;;
51228;SDS011;37304;52.216;6.874;2022-09-27T06:28:21;1.58;;;0.63;;
51228;SDS011;37304;52.216;6.874;2022-09-27T06:33:22;3.13;;;0.85;;
51228;SDS011;37304;52.216;6.874;2022-09-27T06:38:24;5.43;;;1.05;;
51228;SDS011;37304;52.216;6.874;2022-09-27T06:43:24;3.83;;;0.98;;
51228;SDS011;37304;52.216;6.874;2022-09-27T06:48:25;5.40;;;1.27;;
51228;SDS011;37304;52.216;6.874;2022-09-27T06:53:25;4.93;;;1.40;;
51228;SDS011;37304;52.216;6.874;2022-09-27T06:58:26;8.23;;;1.13;;
51228;SDS011;37304;52.216;6.874;2022-09-27T07:03:49;2.78;;;1.05;;
51228;SDS011;37304;52.216;6.874;2022-09-27T07:08:52;2.22;;;1.05;;
51228;SDS011;37304;52.216;6.874;2022-09-27T07:13:53;2.33;;;0.90;;
51228;SDS011;37304;52.216;6.874;2022-09-27T07:18:55;1.73;;;0.75;;
51228;SDS011;37304;52.216;6.874;2022-09-27T07:23:56;3.45;;;0.90;;
51228;SDS011;37304;52.216;6.874;2022-09-27T07:28:57;4.53;;;0.87;;
51228;SDS011;37304;52.216;6.874;2022-09-27T07:33:58;5.15;;;0.85;;
51228;SDS011;37304;52.216;6.874;2022-09-27T07:38:58;1.48;;;0.55;;
51228;SDS011;37304;52.216;6.874;2022-09-27T07:43:59;7.40;;;0.93;;
51228;SDS011;37304;52.216;6.874;2022-09-27T07:48:59;6.95;;;0.90;;
51228;SDS011;37304;52.216;6.874;2022-09-27T07:59:00;1.83;;;0.60;;
51228;SDS011;37304;52.216;6.874;2022-09-27T08:04:01;4.10;;;0.83;;
51228;SDS011;37304;52.216;6.874;2022-09-27T08:09:04;3.77;;;0.87;;
51228;SDS011;37304;52.216;6.874;2022-09-27T08:14:05;1.75;;;0.73;;
51228;SDS011;37304;52.216;6.874;2022-09-27T08:24:06;4.07;;;0.60;;
51228;SDS011;37304;52.216;6.874;2022-09-27T08:34:07;2.93;;;0.73;;
51228;SDS011;37304;52.216;6.874;2022-09-27T08:39:07;1.07;;;0.53;;
51228;SDS011;37304;52.216;6.874;2022-09-27T08:49:39;2.13;;;0.80;;
51228;SDS011;37304;52.216;6.874;2022-09-27T08:54:46;5.55;;;0.93;;
51228;SDS011;37304;52.216;6.874;2022-09-27T09:00:07;4.82;;;0.52;;
51228;SDS011;37304;52.216;6.874;2022-09-27T09:05:12;1.20;;;0.60;;
51228;SDS011;37304;52.216;6.874;2022-09-27T09:16:00;2.80;;;0.70;;
51228;SDS011;37304;52.216;6.874;2022-09-27T09:26:31;2.35;;;0.50;;
51228;SDS011;37304;52.216;6.874;2022-09-27T09:31:43;1.25;;;0.40;;
51228;SDS011;37304;52.216;6.874;2022-09-27T09:37:02;1.80;;;0.57;;
51228;SDS011;37304;52.216;6.874;2022-09-27T09:42:22;0.50;;;0.40;;
51228;SDS011;37304;52.216;6.874;2022-09-27T09:47:30;3.13;;;0.57;;
51228;SDS011;37304;52.216;6.874;2022-09-27T09:52:39;2.55;;;0.65;;
51228;SDS011;37304;52.216;6.874;2022-09-27T10:03:05;0.50;;;0.30;;
51228;SDS011;37304;52.216;6.874;2022-09-27T10:08:06;0.40;;;0.40;;
51228;SDS011;37304;52.216;6.874;2022-09-27T10:13:18;1.63;;;0.50;;
51228;SDS011;37304;52.216;6.874;2022-09-27T10:18:20;1.17;;;0.50;;
51228;SDS011;37304;52.216;6.874;2022-09-27T10:23:21;1.27;;;0.52;;
51228;SDS011;37304;52.216;6.874;2022-09-27T10:33:36;4.50;;;2.08;;
51228;SDS011;37304;52.216;6.874;2022-09-27T10:38:51;2.75;;;0.80;;
51228;SDS011;37304;52.216;6.874;2022-09-27T10:43:53;0.73;;;0.40;;
51228;SDS011;37304;52.216;6.874;2022-09-27T10:49:07;1.37;;;0.20;;
51228;SDS011;37304;52.216;6.874;2022-09-27T10:54:31;0.77;;;0.30;;
51228;SDS011;37304;52.216;6.874;2022-09-27T10:59:38;1.17;;;0.50;;
51228;SDS011;37304;52.216;6.874;2022-09-27T11:04:41;2.17;;;0.98;;
51228;SDS011;37304;52.216;6.874;2022-09-27T11:10:00;0.70;;;0.40;;
51228;SDS011;37304;52.216;6.874;2022-09-27T11:15:05;0.80;;;0.70;;
51228;SDS011;37304;52.216;6.874;2022-09-27T11:25:28;2.92;;;1.00;;
51228;SDS011;37304;52.216;6.874;2022-09-27T11:31:39;0.82;;;0.75;;
51228;SDS011;37304;52.216;6.874;2022-09-27T11:41:54;0.50;;;0.30;;
51228;SDS011;37304;52.216;6.874;2022-09-27T11:47:15;0.75;;;0.40;;
51228;SDS011;37304;52.216;6.874;2022-09-27T12:03:31;1.00;;;0.60;;
51228;SDS011;37304;52.216;6.874;2022-09-27T12:14:32;0.50;;;0.50;;
51228;SDS011;37304;52.216;6.874;2022-09-27T12:19:41;3.15;;;0.68;;
51228;SDS011;37304;52.216;6.874;2022-09-27T12:24:47;1.10;;;0.50;;
51228;SDS011;37304;52.216;6.874;2022-09-27T12:29:48;3.28;;;0.60;;
51228;SDS011;37304;52.216;6.874;2022-09-27T12:39:57;2.10;;;0.60;;
51228;SDS011;37304;52.216;6.874;2022-09-27T12:44:59;1.38;;;0.88;;
51228;SDS011;37304;52.216;6.874;2022-09-27T12:50:14;3.80;;;0.90;;
51228;SDS011;37304;52.216;6.874;2022-09-27T13:06:12;1.85;;;0.80;;
51228;SDS011;37304;52.216;6.874;2022-09-27T13:11:25;3.45;;;1.40;;
51228;SDS011;37304;52.216;6.874;2022-09-27T13:16:40;1.67;;;0.57;;
51228;SDS011;37304;52.216;6.874;2022-09-27T13:26:46;1.63;;;0.95;;
51228;SDS011;37304;52.216;6.874;2022-09-27T13:31:59;1.10;;;0.55;;
51228;SDS011;37304;52.216;6.874;2022-09-27T13:37:20;1.75;;;0.35;;
51228;SDS011;37304;52.216;6.874;2022-09-27T13:42:43;1.48;;;0.47;;
51228;SDS011;37304;52.216;6.874;2022-09-27T13:47:54;3.17;;;0.47;;
51228;SDS011;37304;52.216;6.874;2022-09-27T13:53:07;1.50;;;0.60;;
51228;SDS011;37304;52.216;6.874;2022-09-27T14:03:54;1.73;;;0.52;;
51228;SDS011;37304;52.216;6.874;2022-09-27T14:09:02;2.75;;;0.40;;
51228;SDS011;37304;52.216;6.874;2022-09-27T14:14:05;0.80;;;0.50;;
51228;SDS011;37304;52.216;6.874;2022-09-27T14:19:17;1.20;;;0.40;;
51228;SDS011;37304;52.216;6.874;2022-09-27T14:34:45;1.70;;;0.35;;
51228;SDS011;37304;52.216;6.874;2022-09-27T14:40:03;0.60;;;0.43;;
51228;SDS011;37304;52.216;6.874;2022-09-27T14:45:26;0.95;;;0.40;;
51228;SDS011;37304;52.216;6.874;2022-09-27T14:50:35;0.68;;;0.50;;
51228;SDS011;37304;52.216;6.874;2022-09-27T14:55:35;1.17;;;0.43;;
51228;SDS011;37304;52.216;6.874;2022-09-27T15:00:35;1.13;;;0.50;;
51228;SDS011;37304;52.216;6.874;2022-09-27T15:05:36;0.75;;;0.43;;
51228;SDS011;37304;52.216;6.874;2022-09-27T15:10:40;0.98;;;0.35;;
51228;SDS011;37304;52.216;6.874;2022-09-27T15:15:42;1.20;;;0.55;;
51228;SDS011;37304;52.216;6.874;2022-09-27T15:20:51;2.38;;;0.40;;
51228;SDS011;37304;52.216;6.874;2022-09-27T15:25:57;0.98;;;0.25;;
51228;SDS011;37304;52.216;6.874;2022-09-27T15:31:03;0.43;;;0.32;;
51228;SDS011;37304;52.216;6.874;2022-09-27T15:36:07;0.68;;;0.30;;
51228;SDS011;37304;52.216;6.874;2022-09-27T15:41:13;2.72;;;0.75;;
51228;SDS011;37304;52.216;6.874;2022-09-27T15:51:38;1.52;;;0.60;;
51228;SDS011;37304;52.216;6.874;2022-09-27T15:56:40;0.57;;;0.45;;
51228;SDS011;37304;52.216;6.874;2022-09-27T16:01:41;2.03;;;0.60;;
51228;SDS011;37304;52.216;6.874;2022-09-27T16:06:41;2.43;;;0.90;;
51228;SDS011;37304;52.216;6.874;2022-09-27T16:11:44;2.25;;;0.70;;
51228;SDS011;37304;52.216;6.874;2022-09-27T16:16:46;3.35;;;0.73;;
51228;SDS011;37304;52.216;6.874;2022-09-27T16:21:49;1.23;;;0.90;;
51228;SDS011;37304;52.216;6.874;2022-09-27T16:26:50;3.03;;;0.80;;
51228;SDS011;37304;52.216;6.874;2022-09-27T16:31:50;4.78;;;0.45;;
51228;SDS011;37304;52.216;6.874;2022-09-27T16:36:52;2.83;;;1.08;;
51228;SDS011;37304;52.216;6.874;2022-09-27T16:41:52;2.00;;;0.97;;
51228;SDS011;37304;52.216;6.874;2022-09-27T16:46:53;4.88;;;1.10;;
51228;SDS011;37304;52.216;6.874;2022-09-27T16:51:54;2.22;;;0.98;;
51228;SDS011;37304;52.216;6.874;2022-09-27T16:57:00;3.70;;;1.45;;
51228;SDS011;37304;52.216;6.874;2022-09-27T17:02:01;3.83;;;0.90;;
51228;SDS011;37304;52.216;6.874;2022-09-27T17:07:03;0.75;;;0.55;;
51228;SDS011;37304;52.216;6.874;2022-09-27T17:17:03;1.13;;;1.00;;
51228;SDS011;37304;52.216;6.874;2022-09-27T17:22:05;3.40;;;1.65;;
51228;SDS011;37304;52.216;6.874;2022-09-27T17:27:06;2.88;;;1.10;;
51228;SDS011;37304;52.216;6.874;2022-09-27T17:37:07;2.75;;;1.35;;
51228;SDS011;37304;52.216;6.874;2022-09-27T17:42:10;0.80;;;0.80;;
51228;SDS011;37304;52.216;6.874;2022-09-27T17:47:11;4.65;;;2.20;;
51228;SDS011;37304;52.216;6.874;2022-09-27T17:57:33;3.60;;;1.20;;
51228;SDS011;37304;52.216;6.874;2022-09-27T18:07:33;3.03;;;0.80;;
51228;SDS011;37304;52.216;6.874;2022-09-27T18:17:34;2.80;;;1.27;;
51228;SDS011;37304;52.216;6.874;2022-09-27T18:22:36;3.67;;;0.98;;
51228;SDS011;37304;52.216;6.874;2022-09-27T18:27:37;4.40;;;1.17;;
51228;SDS011;37304;52.216;6.874;2022-09-27T18:32:39;3.17;;;1.20;;
51228;SDS011;37304;52.216;6.874;2022-09-27T18:42:39;1.55;;;1.05;;
51228;SDS011;37304;52.216;6.874;2022-09-27T18:47:41;3.10;;;1.20;;
51228;SDS011;37304;52.216;6.874;2022-09-27T18:57:41;5.20;;;1.40;;
51228;SDS011;37304;52.216;6.874;2022-09-27T19:02:42;4.43;;;1.93;;
51228;SDS011;37304;52.216;6.874;2022-09-27T19:17:43;3.47;;;1.90;;
51228;SDS011;37304;52.216;6.874;2022-09-27T19:27:44;2.78;;;1.80;;
51228;SDS011;37304;52.216;6.874;2022-09-27T19:32:45;2.80;;;1.90;;
51228;SDS011;37304;52.216;6.874;2022-09-27T19:42:49;2.08;;;1.83;;
51228;SDS011;37304;52.216;6.874;2022-09-27T19:47:50;3.65;;;2.30;;
51228;SDS011;37304;52.216;6.874;2022-09-27T19:52:51;3.05;;;2.10;;
51228;SDS011;37304;52.216;6.874;2022-09-27T19:57:51;4.60;;;2.40;;
51228;SDS011;37304;52.216;6.874;2022-09-27T20:02:54;6.00;;;3.03;;
51228;SDS011;37304;52.216;6.874;2022-09-27T20:07:54;3.85;;;3.05;;
51228;SDS011;37304;52.216;6.874;2022-09-27T20:12:54;5.30;;;2.97;;
51228;SDS011;37304;52.216;6.874;2022-09-27T20:17:56;5.97;;;2.42;;
51228;SDS011;37304;52.216;6.874;2022-09-27T20:22:57;4.43;;;2.58;;
51228;SDS011;37304;52.216;6.874;2022-09-27T20:38:16;4.35;;;2.65;;
51228;SDS011;37304;52.216;6.874;2022-09-27T20:43:17;4.45;;;2.80;;
51228;SDS011;37304;52.216;6.874;2022-09-27T20:48:18;3.33;;;2.47;;
51228;SDS011;37304;52.216;6.874;2022-09-27T20:53:18;4.40;;;2.90;;
51228;SDS011;37304;52.216;6.874;2022-09-27T21:03:19;5.75;;;2.83;;
51228;SDS011;37304;52.216;6.874;2022-09-27T21:08:20;5.77;;;3.30;;
51228;SDS011;37304;52.216;6.874;2022-09-27T21:13:20;5.05;;;2.97;;
51228;SDS011;37304;52.216;6.874;2022-09-27T21:18:21;5.30;;;3.33;;
51228;SDS011;37304;52.216;6.874;2022-09-27T21:23:21;8.43;;;3.60;;
51228;SDS011;37304;52.216;6.874;2022-09-27T21:28:22;6.27;;;3.27;;
51228;SDS011;37304;52.216;6.874;2022-09-27T21:33:22;4.33;;;2.83;;
51228;SDS011;37304;52.216;6.874;2022-09-27T21:38:22;3.75;;;3.35;;
51228;SDS011;37304;52.216;6.874;2022-09-27T21:43:23;5.83;;;3.57;;
51228;SDS011;37304;52.216;6.874;2022-09-27T21:48:25;5.35;;;3.67;;
51228;SDS011;37304;52.216;6.874;2022-09-27T21:53:25;7.67;;;4.10;;
51228;SDS011;37304;52.216;6.874;2022-09-27T21:58:26;8.37;;;4.30;;
51228;SDS011;37304;52.216;6.874;2022-09-27T22:03:26;7.85;;;4.38;;
51228;SDS011;37304;52.216;6.874;2022-09-27T22:08:27;6.50;;;3.63;;
51228;SDS011;37304;52.216;6.874;2022-09-27T22:13:30;6.40;;;4.38;;
51228;SDS011;37304;52.216;6.874;2022-09-27T22:18:31;7.75;;;3.78;;
51228;SDS011;37304;52.216;6.874;2022-09-27T22:23:34;6.40;;;3.80;;
51228;SDS011;37304;52.216;6.874;2022-09-27T22:28:35;5.75;;;3.50;;
51228;SDS011;37304;52.216;6.874;2022-09-27T22:33:35;6.33;;;3.47;;
51228;SDS011;37304;52.216;6.874;2022-09-27T22:38:36;6.22;;;3.42;;
51228;SDS011;37304;52.216;6.874;2022-09-27T22:43:37;8.23;;;3.70;;
51228;SDS011;37304;52.216;6.874;2022-09-27T22:48:37;7.47;;;3.35;;
51228;SDS011;37304;52.216;6.874;2022-09-27T22:53:38;5.30;;;3.58;;
51228;SDS011;37304;52.216;6.874;2022-09-27T22:58:38;3.53;;;2.83;;
51228;SDS011;37304;52.216;6.874;2022-09-27T23:03:41;4.70;;;3.42;;
51228;SDS011;37304;52.216;6.874;2022-09-27T23:13:43;5.83;;;3.83;;
51228;SDS011;37304;52.216;6.874;2022-09-27T23:18:44;7.47;;;3.95;;
51228;SDS011;37304;52.216;6.874;2022-09-27T23:23:46;5.50;;;3.45;;
51228;SDS011;37304;52.216;6.874;2022-09-27T23:28:50;6.10;;;3.65;;
51228;SDS011;37304;52.216;6.874;2022-09-27T23:33:54;5.90;;;3.65;;
51228;SDS011;37304;52.216;6.874;2022-09-27T23:38:59;6.03;;;3.65;;
51228;SDS011;37304;52.216;6.874;2022-09-27T23:44:00;7.43;;;3.92;;
51228;SDS011;37304;52.216;6.874;2022-09-27T23:49:03;5.23;;;3.07;;
51228;SDS011;37304;52.216;6.874;2022-09-27T23:54:04;6.38;;;3.45;;
51228;SDS011;37304;52.216;6.874;2022-09-27T23:59:05;9.00;;;3.67;;
